Home > Products > Valid Products > TAF

000
FTUS43 KLMK 312300
TAFBWG
TAF
KBWG 312320Z 0100/0124 00000KT P6SM SCT250
     FM011500 05004KT P6SM SCT060=



000
FTUS43 KLMK 312300
TAFLEX
TAF
KLEX 312320Z 0100/0124 VRB03KT P6SM FEW250
     FM011300 07006KT P6SM BKN060=



000
FTUS43 KLMK 312300
TAFSDF
TAF
KSDF 312320Z 0100/0206 VRB03KT P6SM FEW250
     FM011400 05006KT P6SM BKN060=



000
FTUS43 KLMK 311700
TAFSDF
TAF
KSDF 311729Z 3118/0124 24005KT P6SM SCT050 SCT250
     FM010100 VRB03KT P6SM SCT250
     FM011400 03004KT P6SM SCT060 SCT250=



000
FTUS43 KLMK 311700
TAFBWG
TAF
KBWG 311729Z 3118/0118 25004KT P6SM SCT050 SCT250
     FM010100 VRB03KT P6SM SCT250
     FM011400 VRB04KT P6SM SCT050 SCT250=



000
FTUS43 KLMK 311700
TAFLEX
TAF
KLEX 311729Z 3118/0118 24005KT P6SM SCT050 SCT250
     FM010300 VRB03KT P6SM SCT050 SCT250
     FM011400 08006KT P6SM BKN050 BKN250=



000
FTUS43 KLMK 311100
TAFSDF
TAF
KSDF 311130Z 3112/0118 21004KT P6SM FEW050 FEW250
     FM311500 24005KT P6SM SCT050 SCT250
     FM010200 VRB03KT P6SM SKC
     FM011500 03004KT P6SM FEW050=



000
FTUS43 KLMK 311100
TAFBWG
TAF
KBWG 311130Z 3112/0112 VRB03KT P6SM SCT200
     FM311600 25004KT P6SM SCT050 SCT250
     FM010200 VRB03KT P6SM SKC=



000
FTUS43 KLMK 311100
TAFLEX
TAF
KLEX 311130Z 3112/0112 00000KT P6SM FEW250
     FM311500 24005KT P6SM SCT050 SCT250
     FM010300 03003KT P6SM SKC=



000
FTUS43 KLMK 311000 AAA
TAFLEX
TAF AMD
KLEX 311024Z 3110/0106 00000KT P6SM FEW250
     FM311500 24005KT P6SM SCT050 SCT250
     FM010300 03003KT P6SM SKC=



000
FTUS43 KLMK 310500
TAFSDF
TAF
KSDF 310523Z 3106/0112 21004KT P6SM FEW050 FEW250
     FM311500 24005KT P6SM SCT050 SCT250
     FM010200 VRB03KT P6SM SKC=



000
FTUS43 KLMK 310500
TAFBWG
TAF
KBWG 310523Z 3106/0106 VRB03KT P6SM SCT200
     FM311600 25004KT P6SM SCT050 SCT250
     FM010200 VRB03KT P6SM SKC=



000
FTUS43 KLMK 310500
TAFLEX
TAF
KLEX 310523Z 3106/0106 21004KT P6SM FEW250
     FM311000 00000KT 5SM BR FEW050 FEW250
     FM311500 24005KT P6SM SCT050 SCT250=



000
FTUS43 KLMK 302300
TAFSDF
TAF
KSDF 302324Z 3100/0106 28004KT P6SM FEW050 FEW250
     FM311500 24005KT P6SM SCT050 SCT250=



000
FTUS43 KLMK 302300
TAFLEX
TAF
KLEX 302324Z 3100/3124 23004KT P6SM FEW050 FEW250
     FM311000 00000KT 5SM BR FEW050 FEW250
     FM311500 24005KT P6SM SCT050 SCT250=



000
FTUS43 KLMK 302300
TAFBWG
TAF
KBWG 302324Z 3100/3124 30003KT P6SM FEW050 FEW250
     FM311500 VRB04KT P6SM SCT050 SCT250=



000
FTUS43 KLMK 301700
TAFLEX
TAF
KLEX 301721Z 3018/3118 29008KT P6SM SCT050 SCT150
     FM310200 VRB03KT P6SM SCT050 SCT150
     FM311000 VRB03KT 5SM BR FEW050 SCT250
     FM311300 25005KT P6SM SCT050 SCT250=



000
FTUS43 KLMK 301700
TAFBWG
TAF
KBWG 301721Z 3018/3118 27005KT P6SM SCT050 BKN200
     FM310300 00000KT P6SM SCT050 SCT250
     FM311300 VRB04KT P6SM SCT050 SCT250=



000
FTUS43 KLMK 301700
TAFSDF
TAF
KSDF 301721Z 3018/3124 28010KT P6SM SCT050 SCT250
     FM310100 VRB03KT P6SM FEW050 SCT250
     FM311300 22004KT P6SM SCT050 SCT250=



000
FTUS43 KLMK 301100
TAFSDF
TAF
KSDF 301124Z 3012/3118 VRB03KT P6SM SKC
     FM301500 27007KT P6SM SCT050 SCT150
     FM310000 VRB03KT P6SM SCT100=



000
FTUS43 KLMK 301100
TAFLEX
TAF
KLEX 301124Z 3012/3112 17005KT P6SM SCT060 BKN080
     FM301500 25005KT P6SM SCT050 SCT150
     FM310200 22002KT P6SM SCT100=



000
FTUS43 KLMK 301100
TAFBWG
TAF
KBWG 301124Z 3012/3112 00000KT P6SM SKC
     FM301500 30005KT P6SM FEW050 SCT150
     FM310300 00000KT P6SM SCT050 SCT150=



000
FTUS43 KLMK 300500
TAFSDF
TAF
KSDF 300520Z 3006/3112 VRB03KT P6SM SKC
     FM301500 27007KT P6SM SCT050 SCT150
     FM310000 VRB03KT P6SM SKC=



000
FTUS43 KLMK 300500
TAFBWG
TAF
KBWG 300520Z 3006/3106 00000KT P6SM SKC
     FM300900 00000KT 5SM BR SKC
     FM301300 30005KT P6SM SCT050 SCT150=



000
FTUS43 KLMK 300500
TAFLEX
TAF
KLEX 300520Z 3006/3106 VRB03KT P6SM SKC
     FM300900 00000KT 5SM BR SKC
     FM301300 28005KT P6SM SCT050 SCT150=



000
FTUS43 KLMK 292300
TAFBWG
TAF
KBWG 292320Z 3000/3024 VRB03KT P6SM SKC
     FM300900 00000KT 5SM BR SKC
     FM301300 28004KT P6SM SCT050=



000
FTUS43 KLMK 292300
TAFLEX
TAF
KLEX 292320Z 3000/3024 VRB03KT P6SM SKC
     FM300900 00000KT 5SM BR SKC
     FM301300 28005KT P6SM SCT050=



000
FTUS43 KLMK 292300
TAFSDF
TAF
KSDF 292320Z 3000/3106 VRB03KT P6SM SKC
     FM301500 27007KT P6SM SCT050
     FM310000 VRB03KT P6SM SKC=



000
FTUS43 KLMK 291700
TAFSDF
TAF
KSDF 291731Z 2918/3024 33008KT P6SM SCT040
     FM300000 VRB03KT P6SM FEW250
     FM301500 27008KT P6SM SCT040=



000
FTUS43 KLMK 291700
TAFBWG
TAF
KBWG 291731Z 2918/3018 36008KT P6SM SCT040
     FM300000 VRB03KT P6SM FEW250
     FM300900 00000KT 5SM BR SKC
     FM301300 33005KT P6SM SCT040=



000
FTUS43 KLMK 291700
TAFLEX
TAF
KLEX 291731Z 2918/3018 31007KT P6SM SCT035
     FM300000 VRB03KT P6SM FEW250
     FM300900 VRB03KT 5SM BR SKC
     FM301400 28005KT P6SM SCT040=



000
FTUS43 KLMK 291100
TAFLEX
TAF
KLEX 291127Z 2912/3012 32004KT P6SM SKC
     FM291400 33007KT P6SM SCT045
     FM300000 VRB03KT P6SM FEW250=



000
FTUS43 KLMK 291100
TAFBWG
TAF
KBWG 291127Z 2912/3012 33003KT P6SM SKC
     FM291400 35007KT P6SM SCT045
     FM300000 VRB03KT P6SM FEW250=



000
FTUS43 KLMK 291100
TAFSDF
TAF
KSDF 291127Z 2912/3018 29006KT P6SM SKC
     FM291400 33007KT P6SM SCT045
     FM300000 VRB03KT P6SM FEW250=



000
FTUS43 KLMK 290500
TAFLEX
TAF
KLEX 290520Z 2906/3006 33004KT P6SM SKC
     FM291400 33007KT P6SM SCT045
     FM300000 VRB03KT P6SM FEW250=



000
FTUS43 KLMK 290500
TAFSDF
TAF
KSDF 290520Z 2906/3012 34006KT P6SM SKC
     FM291400 33007KT P6SM SCT045
     FM300000 VRB03KT P6SM FEW250=



000
FTUS43 KLMK 290500
TAFBWG
TAF
KBWG 290520Z 2906/3006 34003KT P6SM SKC
     FM291400 35007KT P6SM SCT045
     FM300000 VRB03KT P6SM FEW250=



    US Dept of Commerce
    National Oceanic and Atmospheric Administration
    National Weather Service
    1325 East West Highway
    Silver Spring, MD 20910
    Page Author: NWS Internet Services Team
Disclaimer
Information Quality
Credits
Glossary
Privacy Policy
Freedom of Information Act (FOIA)
About Us
Career Opportunities